createdAt,value
2017-08-22T00:01:47.173Z,9.40
2017-08-22T00:04:16.412Z,9.40
2017-08-22T00:06:44.761Z,8.90
2017-08-22T00:09:13.157Z,8.80
2017-08-22T00:11:41.494Z,8.87
2017-08-22T00:14:10.017Z,9.33
2017-08-22T00:16:38.358Z,9.70
2017-08-22T00:19:06.817Z,10.30
2017-08-22T00:21:35.170Z,9.30
2017-08-22T00:24:03.529Z,9.10
2017-08-22T00:26:31.954Z,8.90
2017-08-22T00:29:00.166Z,9.50
2017-08-22T00:31:29.182Z,10.03
2017-08-22T00:33:57.540Z,8.80
2017-08-22T00:36:26.010Z,9.57
2017-08-22T00:38:54.691Z,10.10
2017-08-22T00:41:23.054Z,9.63
2017-08-22T00:43:51.445Z,9.73
2017-08-22T00:46:19.807Z,9.07
2017-08-22T00:48:48.157Z,9.73
2017-08-22T00:51:16.367Z,10.80
2017-08-22T00:53:44.731Z,10.27
2017-08-22T00:56:13.097Z,9.27
2017-08-22T00:58:41.492Z,10.80
2017-08-22T01:01:09.842Z,11.63
2017-08-22T01:03:37.857Z,10.17
2017-08-22T01:06:05.597Z,10.50
2017-08-22T01:08:33.973Z,10.23
2017-08-22T01:11:03.169Z,10.20
2017-08-22T01:13:31.606Z,10.77
2017-08-22T01:16:00.179Z,11.23
2017-08-22T01:18:28.525Z,10.50
2017-08-22T01:20:56.193Z,9.73
2017-08-22T01:23:24.728Z,10.20
2017-08-22T01:25:52.759Z,11.40
2017-08-22T01:28:20.781Z,10.23
2017-08-22T01:30:48.456Z,10.63
2017-08-22T01:33:16.109Z,10.80
2017-08-22T01:35:44.126Z,10.53
2017-08-22T01:38:12.158Z,10.37
2017-08-22T01:40:39.835Z,11.00
2017-08-22T01:43:08.209Z,10.10
2017-08-22T01:45:36.577Z,10.97
2017-08-22T01:48:04.937Z,10.00
2017-08-22T01:50:33.293Z,9.90
2017-08-22T01:53:01.645Z,10.10
2017-08-22T01:55:30.095Z,10.10
2017-08-22T01:57:58.453Z,10.10
2017-08-22T02:00:26.461Z,10.20
2017-08-22T02:02:54.820Z,10.23
2017-08-22T02:05:23.187Z,9.87
2017-08-22T02:07:51.616Z,10.47
2017-08-22T02:10:19.957Z,9.50
2017-08-22T02:12:48.368Z,10.10
2017-08-22T02:15:16.726Z,10.60
2017-08-22T02:17:45.917Z,9.70
2017-08-22T02:20:14.272Z,9.97
2017-08-22T02:22:42.687Z,9.93
2017-08-22T02:25:11.063Z,9.03
2017-08-22T02:27:39.644Z,9.40
2017-08-22T02:30:08.020Z,9.67
2017-08-22T02:32:36.394Z,9.63
2017-08-22T02:35:04.747Z,9.40
2017-08-22T02:37:33.249Z,9.27
2017-08-22T02:40:01.599Z,9.67
2017-08-22T02:42:30.734Z,8.90
2017-08-22T02:44:59.300Z,9.23
2017-08-22T02:47:27.722Z,9.40
2017-08-22T02:49:56.359Z,9.20
2017-08-22T02:52:24.787Z,8.70
2017-08-22T02:54:53.139Z,9.47
2017-08-22T02:57:21.527Z,9.73
2017-08-22T02:59:49.954Z,9.50
2017-08-22T03:02:18.397Z,8.80
2017-08-22T03:04:46.758Z,10.13
2017-08-22T03:07:15.331Z,9.40
2017-08-22T03:09:43.673Z,8.97
2017-08-22T03:12:12.151Z,9.77
2017-08-22T03:14:40.502Z,8.83
2017-08-22T03:17:09.823Z,9.17
2017-08-22T03:19:38.175Z,8.80
2017-08-22T03:22:06.679Z,8.80
2017-08-22T03:24:35.042Z,9.80
2017-08-22T03:27:03.473Z,9.40
2017-08-22T03:29:32.602Z,9.30
2017-08-22T03:32:00.964Z,9.13
2017-08-22T03:34:29.331Z,8.77
2017-08-22T03:36:57.706Z,8.63
2017-08-22T03:39:27.054Z,9.60
2017-08-22T03:41:55.389Z,9.10
2017-08-22T03:44:23.754Z,8.90
2017-08-22T03:46:52.115Z,8.80
2017-08-22T03:49:20.470Z,8.50
2017-08-22T03:51:48.899Z,8.80
2017-08-22T03:54:17.303Z,8.30
2017-08-22T03:56:45.681Z,7.70
2017-08-22T03:59:14.021Z,7.80
2017-08-22T04:01:42.375Z,8.37
2017-08-22T04:04:10.734Z,8.10
2017-08-22T04:06:39.117Z,8.20
2017-08-22T04:09:07.462Z,8.70
2017-08-22T04:11:35.837Z,8.50
2017-08-22T04:14:04.210Z,7.97
2017-08-22T04:16:32.788Z,9.10
2017-08-22T04:19:01.130Z,8.80
2017-08-22T04:21:30.323Z,8.30
2017-08-22T04:23:58.673Z,8.33
2017-08-22T04:26:27.211Z,8.80
2017-08-22T04:28:55.654Z,8.47
2017-08-22T04:31:24.010Z,8.00
2017-08-22T04:33:52.497Z,8.47
2017-08-22T04:36:20.862Z,8.73
2017-08-22T04:38:49.226Z,8.63
2017-08-22T04:41:17.589Z,9.00
2017-08-22T04:43:45.953Z,8.80
2017-08-22T04:46:14.312Z,8.80
2017-08-22T04:48:42.679Z,8.27
2017-08-22T04:51:11.805Z,9.03
2017-08-22T04:53:40.169Z,9.00
2017-08-22T04:56:08.528Z,8.43
2017-08-22T04:58:36.685Z,9.00
2017-08-22T05:01:05.054Z,8.60
2017-08-22T05:03:34.181Z,8.50
2017-08-22T05:06:02.762Z,8.10
2017-08-22T05:08:31.106Z,8.87
2017-08-22T05:11:00.246Z,8.27
2017-08-22T05:13:28.808Z,7.87
2017-08-22T05:15:57.188Z,8.30
2017-08-22T05:18:25.368Z,8.03
2017-08-22T05:20:53.792Z,7.83
2017-08-22T05:23:22.152Z,7.97
2017-08-22T05:25:50.513Z,7.43
2017-08-22T05:28:18.888Z,7.50
2017-08-22T05:30:47.233Z,7.70
2017-08-22T05:33:15.592Z,7.70
2017-08-22T05:35:43.939Z,8.60
2017-08-22T05:38:12.305Z,7.20
2017-08-22T05:40:40.741Z,7.90
2017-08-22T05:43:09.863Z,7.80
2017-08-22T05:45:38.417Z,7.40
2017-08-22T05:48:06.794Z,6.60
2017-08-22T05:50:35.162Z,6.97
2017-08-22T05:53:03.512Z,7.63
2017-08-22T05:55:31.891Z,7.30
2017-08-22T05:58:00.246Z,7.20
2017-08-22T06:00:28.612Z,7.07
2017-08-22T06:02:56.971Z,7.63
2017-08-22T06:05:25.340Z,7.40
2017-08-22T06:07:54.373Z,7.23
2017-08-22T06:10:22.739Z,7.03
2017-08-22T06:12:51.108Z,7.90
2017-08-22T06:15:19.542Z,7.10
2017-08-22T06:17:47.915Z,7.13
2017-08-22T06:20:16.278Z,7.30
2017-08-22T06:22:44.629Z,6.50
2017-08-22T06:25:12.983Z,7.50
2017-08-22T06:27:41.416Z,7.57
2017-08-22T06:30:09.758Z,6.93
2017-08-22T06:32:38.880Z,8.00
2017-08-22T06:35:07.231Z,7.23
2017-08-22T06:37:35.843Z,7.70
2017-08-22T06:40:04.194Z,7.40
2017-08-22T06:42:32.555Z,8.03
2017-08-22T06:45:01.027Z,7.23
2017-08-22T06:47:29.395Z,7.53
2017-08-22T06:49:57.786Z,8.80
2017-08-22T06:52:26.139Z,7.60
2017-08-22T06:54:54.495Z,8.17
2017-08-22T06:57:22.862Z,8.30
2017-08-22T06:59:51.239Z,7.57
2017-08-22T07:02:19.611Z,7.10
2017-08-22T07:04:48.041Z,7.33
2017-08-22T07:07:16.407Z,7.13
2017-08-22T07:09:44.788Z,7.20
2017-08-22T07:12:13.926Z,7.23
2017-08-22T07:14:42.274Z,6.90
2017-08-22T07:17:10.634Z,6.70
2017-08-22T07:19:39.152Z,6.60
2017-08-22T07:22:07.539Z,6.20
2017-08-22T07:24:36.671Z,6.60
2017-08-22T07:27:05.021Z,6.10
2017-08-22T07:29:33.382Z,5.90
2017-08-22T07:32:01.729Z,5.60
2017-08-22T07:34:30.081Z,6.17
2017-08-22T07:36:58.461Z,5.80
2017-08-22T07:39:26.874Z,5.67
2017-08-22T07:41:55.222Z,6.60
2017-08-22T07:44:23.625Z,6.03
2017-08-22T07:46:51.986Z,6.23
2017-08-22T07:49:20.352Z,6.47
2017-08-22T07:51:49.469Z,5.67
2017-08-22T07:54:17.955Z,5.63
2017-08-22T07:56:46.532Z,6.17
2017-08-22T07:59:14.876Z,6.50
2017-08-22T08:01:42.883Z,6.57
2017-08-22T08:04:11.251Z,5.73
2017-08-22T08:06:39.623Z,5.87
2017-08-22T08:09:07.977Z,6.17
2017-08-22T08:11:36.332Z,5.33
2017-08-22T08:14:04.688Z,5.47
2017-08-22T08:16:33.038Z,7.07
2017-08-22T08:19:01.403Z,5.97
2017-08-22T08:21:29.755Z,5.70
2017-08-22T08:23:58.153Z,6.00
2017-08-22T08:26:26.254Z,6.10
2017-08-22T08:28:54.607Z,5.23
2017-08-22T08:31:22.980Z,6.20
2017-08-22T08:33:51.356Z,6.40
2017-08-22T08:36:19.712Z,6.07
2017-08-22T08:38:48.063Z,6.70
2017-08-22T08:41:16.428Z,5.53
2017-08-22T08:43:44.866Z,6.60
2017-08-22T08:46:13.886Z,6.43
2017-08-22T08:48:42.921Z,5.83
2017-08-22T08:51:11.346Z,6.40
2017-08-22T08:53:39.736Z,7.20
2017-08-22T08:56:08.270Z,6.20
2017-08-22T08:58:36.950Z,6.00
2017-08-22T09:01:05.296Z,6.17
2017-08-22T09:03:33.678Z,6.10
2017-08-22T09:06:02.998Z,7.20
2017-08-22T09:08:31.350Z,6.07
2017-08-22T09:10:59.814Z,5.70
2017-08-22T09:13:28.183Z,6.83
2017-08-22T09:15:56.648Z,6.40
2017-08-22T09:18:25.015Z,5.83
2017-08-22T09:20:53.565Z,5.73
2017-08-22T09:23:21.986Z,5.80
2017-08-22T09:25:50.354Z,5.50
2017-08-22T09:28:18.702Z,5.33
2017-08-22T09:30:47.064Z,5.30
2017-08-22T09:33:15.414Z,5.67
2017-08-22T09:35:43.774Z,4.77
2017-08-22T09:38:13.114Z,4.53
2017-08-22T09:40:41.472Z,4.73
2017-08-22T09:43:09.869Z,5.27
2017-08-22T09:45:38.235Z,5.40
2017-08-22T09:48:06.627Z,5.80
2017-08-22T09:50:36.537Z,5.30
2017-08-22T09:53:04.919Z,4.90
2017-08-22T09:55:33.277Z,4.70
2017-08-22T09:58:01.654Z,4.77
2017-08-22T10:00:30.074Z,4.83
2017-08-22T10:02:58.430Z,4.57
2017-08-22T10:05:26.787Z,4.77
2017-08-22T10:07:55.152Z,5.30
2017-08-22T10:10:23.527Z,4.53
2017-08-22T10:12:51.913Z,4.80
2017-08-22T10:15:20.258Z,4.80
2017-08-22T10:17:49.391Z,4.80
2017-08-22T10:20:17.754Z,4.83
2017-08-22T10:22:46.145Z,4.40
2017-08-22T10:25:14.513Z,4.43
2017-08-22T10:27:42.886Z,5.40
2017-08-22T10:30:11.233Z,4.70
2017-08-22T10:32:39.585Z,5.70
2017-08-22T10:35:07.939Z,5.30
2017-08-22T10:37:36.317Z,4.67
2017-08-22T10:40:04.871Z,4.57
2017-08-22T10:42:33.342Z,4.73
2017-08-22T10:45:01.796Z,4.13
2017-08-22T10:47:30.089Z,5.03
2017-08-22T10:49:58.477Z,4.73
2017-08-22T10:52:26.826Z,5.47
2017-08-22T10:54:55.866Z,5.90
2017-08-22T10:57:24.230Z,4.83
2017-08-22T10:59:52.588Z,4.97
2017-08-22T11:02:20.951Z,5.47
2017-08-22T11:04:49.325Z,5.53
2017-08-22T11:07:17.679Z,4.97
2017-08-22T11:09:46.813Z,5.40
2017-08-22T11:12:15.388Z,4.97
2017-08-22T11:14:43.744Z,4.90
2017-08-22T11:17:12.875Z,4.70
2017-08-22T11:19:41.443Z,5.10
2017-08-22T11:22:09.790Z,4.93
2017-08-22T11:24:38.918Z,4.40
2017-08-22T11:27:07.488Z,5.30
2017-08-22T11:29:35.836Z,5.10
2017-08-22T11:32:04.970Z,5.03
2017-08-22T11:34:33.538Z,4.20
2017-08-22T11:37:02.011Z,4.40
2017-08-22T11:39:30.390Z,4.20
2017-08-22T11:41:58.884Z,4.00
2017-08-22T11:44:27.242Z,4.20
2017-08-22T11:46:55.619Z,4.23
2017-08-22T11:49:23.992Z,3.70
2017-08-22T11:51:52.369Z,4.37
2017-08-22T11:54:20.719Z,3.93
2017-08-22T11:56:49.084Z,4.10
2017-08-22T11:59:17.453Z,4.40
2017-08-22T12:01:45.797Z,4.30
2017-08-22T12:04:14.150Z,4.40
2017-08-22T12:06:42.534Z,4.63
2017-08-22T12:09:11.102Z,4.40
2017-08-22T12:11:39.589Z,4.07
2017-08-22T12:14:07.937Z,3.77
2017-08-22T12:16:36.295Z,3.67
2017-08-22T12:19:04.456Z,3.60
2017-08-22T12:21:32.639Z,4.00
2017-08-22T12:24:00.820Z,4.17
2017-08-22T12:26:29.350Z,4.20
2017-08-22T12:28:57.712Z,3.50
2017-08-22T12:31:26.178Z,4.10
2017-08-22T12:33:54.656Z,3.53
2017-08-22T12:36:23.000Z,3.30
2017-08-22T12:38:51.358Z,3.53
2017-08-22T12:41:19.718Z,3.40
2017-08-22T12:43:48.080Z,3.03
2017-08-22T12:46:16.475Z,3.50
2017-08-22T12:48:44.830Z,3.93
2017-08-22T12:51:13.190Z,3.70
2017-08-22T12:53:41.625Z,3.13
2017-08-22T12:56:09.985Z,3.67
2017-08-22T12:58:38.348Z,3.40
2017-08-22T13:01:06.706Z,3.53
2017-08-22T13:03:35.075Z,3.80
2017-08-22T13:06:03.446Z,3.97
2017-08-22T13:08:31.815Z,4.10
2017-08-22T13:11:00.292Z,3.30
2017-08-22T13:13:28.667Z,3.43
2017-08-22T13:15:57.024Z,3.10
2017-08-22T13:18:25.388Z,3.90
2017-08-22T13:20:53.745Z,3.80
2017-08-22T13:23:23.282Z,3.17
2017-08-22T13:25:51.634Z,3.80
2017-08-22T13:28:20.970Z,3.93
2017-08-22T13:30:49.349Z,3.83
2017-08-22T13:33:17.984Z,3.33
2017-08-22T13:35:46.405Z,3.60
2017-08-22T13:38:14.842Z,3.83
2017-08-22T13:40:43.206Z,3.80
2017-08-22T13:43:11.841Z,3.83
2017-08-22T13:45:40.191Z,3.77
2017-08-22T13:48:08.546Z,3.33
2017-08-22T13:50:36.969Z,4.20
2017-08-22T13:53:06.269Z,4.07
2017-08-22T13:55:34.956Z,3.80
2017-08-22T13:58:03.300Z,3.70
2017-08-22T14:00:31.495Z,4.13
2017-08-22T14:02:59.871Z,4.20
2017-08-22T14:05:28.215Z,3.27
2017-08-22T14:07:56.575Z,3.77
2017-08-22T14:10:24.921Z,4.07
2017-08-22T14:12:53.307Z,3.97
2017-08-22T14:15:21.870Z,4.67
2017-08-22T14:17:50.330Z,4.53
2017-08-22T14:20:18.747Z,4.07
2017-08-22T14:22:47.112Z,4.40
2017-08-22T14:25:15.484Z,3.90
2017-08-22T14:27:43.841Z,4.60
2017-08-22T14:30:12.199Z,3.70
2017-08-22T14:32:40.559Z,4.77
2017-08-22T14:35:08.919Z,4.00
2017-08-22T14:37:37.274Z,4.37
2017-08-22T14:40:05.638Z,4.27
2017-08-22T14:42:34.006Z,4.43
2017-08-22T14:45:02.366Z,4.13
2017-08-22T14:47:31.546Z,4.60
2017-08-22T14:49:59.892Z,3.70
2017-08-22T14:52:28.260Z,4.23
2017-08-22T14:54:56.607Z,4.93
2017-08-22T14:57:24.963Z,3.80
2017-08-22T14:59:53.307Z,4.30
2017-08-22T15:02:21.675Z,4.37
2017-08-22T15:04:50.019Z,4.70
2017-08-22T15:07:18.463Z,4.50
2017-08-22T15:09:46.817Z,5.10
2017-08-22T15:12:15.935Z,4.70
2017-08-22T15:14:44.510Z,4.30
2017-08-22T15:17:12.885Z,4.90
2017-08-22T15:19:41.241Z,4.80
2017-08-22T15:22:09.602Z,4.77
2017-08-22T15:24:37.963Z,4.40
2017-08-22T15:27:05.994Z,4.67
2017-08-22T15:29:35.135Z,4.70
2017-08-22T15:32:03.756Z,5.33
2017-08-22T15:34:32.121Z,4.50
2017-08-22T15:37:00.462Z,4.63
2017-08-22T15:39:28.818Z,4.67
2017-08-22T15:41:57.179Z,4.60
2017-08-22T15:44:25.537Z,4.60
2017-08-22T15:46:53.890Z,4.40
2017-08-22T15:49:22.251Z,4.33
2017-08-22T15:51:52.987Z,3.70
2017-08-22T15:54:21.387Z,3.93
2017-08-22T15:56:49.804Z,4.60
2017-08-22T15:59:17.876Z,4.40
2017-08-22T16:01:46.224Z,4.30
2017-08-22T16:04:14.790Z,3.83
2017-08-22T16:06:43.167Z,3.50
2017-08-22T16:09:11.539Z,5.50
2017-08-22T16:11:39.882Z,4.53
2017-08-22T16:14:08.249Z,4.63
2017-08-22T16:16:36.906Z,4.90
2017-08-22T16:19:05.351Z,4.90
2017-08-22T16:21:34.648Z,5.70
2017-08-22T16:24:03.002Z,4.60
2017-08-22T16:26:31.355Z,4.77
2017-08-22T16:28:59.727Z,4.80
2017-08-22T16:31:28.154Z,5.23
2017-08-22T16:33:57.271Z,5.60
2017-08-22T16:36:25.648Z,4.83
2017-08-22T16:38:54.001Z,5.10
2017-08-22T16:41:22.380Z,6.33
2017-08-22T16:43:50.752Z,5.87
2017-08-22T16:46:19.102Z,5.00
2017-08-22T16:48:47.451Z,6.30
2017-08-22T16:51:15.811Z,6.53
2017-08-22T16:53:44.165Z,6.37
2017-08-22T16:56:12.335Z,5.60
2017-08-22T16:58:40.697Z,5.80
2017-08-22T17:01:09.071Z,5.97
2017-08-22T17:03:37.421Z,6.90
2017-08-22T17:06:05.819Z,6.80
2017-08-22T17:08:34.283Z,6.63
2017-08-22T17:11:02.677Z,7.53
2017-08-22T17:13:31.037Z,7.63
2017-08-22T17:15:59.403Z,6.90
2017-08-22T17:18:28.723Z,7.40
2017-08-22T17:20:56.818Z,7.37
2017-08-22T17:23:25.188Z,7.00
2017-08-22T17:25:53.762Z,6.03
2017-08-22T17:28:22.228Z,6.73
2017-08-22T17:30:51.382Z,6.00
2017-08-22T17:33:19.734Z,6.23
2017-08-22T17:35:48.173Z,5.63
2017-08-22T17:38:16.536Z,5.97
2017-08-22T17:40:44.956Z,6.80
2017-08-22T17:43:13.321Z,6.10
2017-08-22T17:45:41.703Z,6.20
2017-08-22T17:48:10.281Z,6.07
2017-08-22T17:50:38.646Z,5.93
2017-08-22T17:53:07.830Z,5.63
2017-08-22T17:55:36.203Z,6.17
2017-08-22T17:58:04.565Z,5.87
2017-08-22T18:00:32.930Z,5.87
2017-08-22T18:03:01.331Z,5.70
2017-08-22T18:05:29.690Z,5.80
2017-08-22T18:07:59.479Z,7.27
2017-08-22T18:10:28.813Z,6.63
2017-08-22T18:12:57.249Z,7.33
2017-08-22T18:15:25.629Z,6.77
2017-08-22T18:17:53.991Z,7.50
2017-08-22T18:20:22.364Z,7.70
2017-08-22T18:22:50.726Z,7.93
2017-08-22T18:25:19.117Z,8.03
2017-08-22T18:27:47.496Z,8.63
2017-08-22T18:30:15.853Z,8.90
2017-08-22T18:35:21.938Z,9.07
2017-08-22T18:37:50.371Z,10.40
2017-08-22T18:40:18.746Z,8.93
2017-08-22T18:42:47.341Z,9.47
2017-08-22T18:45:15.802Z,9.73
2017-08-22T18:47:44.331Z,9.50
2017-08-22T18:50:12.866Z,8.57
2017-08-22T18:52:41.545Z,9.30
2017-08-22T18:55:10.033Z,9.70
2017-08-22T18:57:38.449Z,10.20
2017-08-22T19:00:06.982Z,10.07
2017-08-22T19:02:35.333Z,10.53
2017-08-22T19:05:03.730Z,10.17
2017-08-22T19:07:32.101Z,10.73
2017-08-22T19:10:00.452Z,9.83
2017-08-22T19:12:29.600Z,9.10
2017-08-22T19:14:58.153Z,10.50
2017-08-22T19:17:26.518Z,11.10
2017-08-22T19:19:54.868Z,10.53
2017-08-22T19:22:24.031Z,9.90
2017-08-22T19:24:52.418Z,10.20
2017-08-22T19:27:20.787Z,11.50
2017-08-22T19:29:49.158Z,10.87
2017-08-22T19:32:17.527Z,10.77
2017-08-22T19:34:45.915Z,10.87
2017-08-22T19:37:14.459Z,11.33
2017-08-22T19:39:42.834Z,12.07
2017-08-22T19:42:11.317Z,12.40
2017-08-22T19:44:39.788Z,14.70
2017-08-22T19:47:08.169Z,12.80
2017-08-22T19:49:36.541Z,11.60
2017-08-22T19:52:05.027Z,13.30
2017-08-22T19:54:33.404Z,12.30
2017-08-22T19:57:02.086Z,11.77
2017-08-22T19:59:30.452Z,13.03
2017-08-22T20:01:58.958Z,12.60
2017-08-22T20:04:27.515Z,12.60
2017-08-22T20:06:55.890Z,14.40
2017-08-22T20:09:24.572Z,14.23
2017-08-22T20:11:53.032Z,15.30
2017-08-22T20:14:21.426Z,13.57
2017-08-22T20:16:49.829Z,14.40
2017-08-22T20:19:18.232Z,15.40
2017-08-22T20:21:46.597Z,15.27
2017-08-22T20:24:14.971Z,16.30
2017-08-22T20:26:43.352Z,14.57
2017-08-22T20:29:11.726Z,16.40
2017-08-22T20:31:40.111Z,16.20
2017-08-22T20:34:08.638Z,15.90
2017-08-22T20:36:37.090Z,16.43
2017-08-22T20:39:04.937Z,14.70
2017-08-22T20:41:33.453Z,15.63
2017-08-22T20:44:02.139Z,15.40
2017-08-22T20:46:30.577Z,17.50
2017-08-22T20:48:59.150Z,16.73
2017-08-22T20:51:27.516Z,16.30
2017-08-22T20:53:55.886Z,17.27
2017-08-22T20:56:24.270Z,17.60
2017-08-22T20:58:52.648Z,17.90
2017-08-22T21:01:21.027Z,18.20
2017-08-22T21:03:49.453Z,19.10
2017-08-22T21:06:18.009Z,17.90
2017-08-22T21:08:46.405Z,17.57
2017-08-22T21:11:14.771Z,16.67
2017-08-22T21:13:43.141Z,19.33
2017-08-22T21:16:11.533Z,18.50
2017-08-22T21:18:39.909Z,19.20
2017-08-22T21:21:08.263Z,18.23
2017-08-22T21:23:38.284Z,17.83
2017-08-22T21:26:06.646Z,17.00
2017-08-22T21:28:35.791Z,16.53
2017-08-22T21:31:04.166Z,19.60
2017-08-22T21:33:32.524Z,18.33
2017-08-22T21:36:01.102Z,16.60
2017-08-22T21:38:29.477Z,17.77
2017-08-22T21:40:57.854Z,18.40
2017-08-22T21:43:26.219Z,17.00
2017-08-22T21:45:54.585Z,16.30
2017-08-22T21:48:22.980Z,16.93
2017-08-22T21:50:51.426Z,17.03
2017-08-22T21:53:19.781Z,17.73
2017-08-22T21:55:48.144Z,18.83
2017-08-22T21:58:16.519Z,18.10
2017-08-22T22:00:45.167Z,18.70
2017-08-22T22:03:13.546Z,18.67
2017-08-22T22:05:41.921Z,17.73
2017-08-22T22:08:10.288Z,17.70
2017-08-22T22:10:38.652Z,17.33
2017-08-22T22:13:07.009Z,18.63
2017-08-22T22:15:35.687Z,17.77
2017-08-22T22:18:04.058Z,18.53
2017-08-22T22:20:32.413Z,19.30
2017-08-22T22:23:00.782Z,18.70
2017-08-22T22:25:29.145Z,17.90
2017-08-22T22:27:57.610Z,18.77
2017-08-22T22:30:26.041Z,17.80
2017-08-22T22:32:54.426Z,19.60
2017-08-22T22:35:22.798Z,19.13
2017-08-22T22:37:51.162Z,18.30
2017-08-22T22:40:19.793Z,18.03
2017-08-22T22:42:48.168Z,18.17
2017-08-22T22:45:16.546Z,18.47
2017-08-22T22:47:45.229Z,17.90
2017-08-22T22:50:13.604Z,17.90
2017-08-22T22:52:41.953Z,17.53
2017-08-22T22:55:10.415Z,18.03
2017-08-22T22:57:38.996Z,18.53
2017-08-22T23:00:07.363Z,17.57
2017-08-22T23:02:35.709Z,17.70
2017-08-22T23:05:04.165Z,18.77
2017-08-22T23:07:32.854Z,18.77
2017-08-22T23:10:01.221Z,18.43
2017-08-22T23:12:29.580Z,18.17
2017-08-22T23:14:57.947Z,19.53
2017-08-22T23:17:26.329Z,19.53
2017-08-22T23:19:54.690Z,19.20
2017-08-22T23:22:23.853Z,17.60
2017-08-22T23:24:52.214Z,19.00
2017-08-22T23:27:20.777Z,19.90
2017-08-22T23:29:49.124Z,18.73
2017-08-22T23:32:18.266Z,17.73
2017-08-22T23:34:46.827Z,19.13
2017-08-22T23:37:15.183Z,18.87
2017-08-22T23:39:43.533Z,18.70
2017-08-22T23:42:11.885Z,18.53
2017-08-22T23:44:40.260Z,17.33
2017-08-22T23:47:08.713Z,17.70
2017-08-22T23:49:37.834Z,17.83
2017-08-22T23:52:06.380Z,17.07
2017-08-22T23:54:34.805Z,18.83
2017-08-22T23:57:03.171Z,18.67
2017-08-22T23:59:31.554Z,17.60
